Página principal
METAR-TAF:

METAR-TAF

Aeroportos :

Aeroporto Internacional de Tashkent

Tashkent, Uzbequistão

latitude: 41-16N, longitude: 069-16E, altura: 489 m

Observação actual do tempo

O boletim foi feito há 45 minutos, às 10:00 UTC
Vento 6 kt de noroeste, variando entre su-sudoeste e nor-nordeste
Temperatura 39°C
Humidade 16%
Pressão 1001 hPa
Visibilidade 10 km ou mais
sem nuvens abaixo de 1500 metros e sem cumulonimbus

METAR: UTTT 201000Z 31006KT 210V020 CAVOK 39/09 Q1001 R08R/CLRD70 NOSIG

Hora: 15:45 (10:45 UTC)

Previsão

O boletim foi feito há 5 horas e 45 minutos, às 05:00 UTC
Previsão válida de 20 às 06 UTC a 21 às 06 UTC
Vento 2 kt com direcção variável
Visibilidade: 7000 m
Temporariamente
de 20 às 06 UTC a 20 às 16 UTC
Vento 12 kt de oes-noroeste com rajadas de 22 kt

TAF: UTTT 200500Z 2006/2106 VRB02KT 7000 NSC TX40/2010Z TEMPO 2006/2016 30012G22KT

Observações e previsões do tempo de mais de 4000 aeroportos (mensagens METAR e TAF).

As estações disponíveis são os pontos amarelos e vermelhos sobre o mapa.

Mova o rato sobre o mapa para ver o nome da estação.

Depois clique no ponto para visualizar as observações e previsões meteorológicas.

Para alterar o mapa : clique nos botões verdes com uma cruz preta para aumentar o zoom; no botão verde com uma pitada de zoom; ou nas setas verdes para mapas adjacentes.


METAR-TAF: